Historyczne dane pomiarowe

Dodano dane terminowe – wersja testowa.

Dane z okresu 1951-2019

Wersja bazy: 1.34 [2019-03-16, lista zmian], aktualizacja planowana na 2019-04-15

Dane meteo z obszaru Polski uzyskane na podstawie danych udostępnionych przez Instytut Meteorologii i Gospodarki Wodnej – Państwowy Instytut Badawczy.

 

Wybierz Datę:    

       

TemperaturaWilgotnośćWiatrCiśnienieOpadyŚniegCzas trwania zjawisk
 Stacja t tx tn tng RH VA  wxwx mslp ppp RRR   cm mm wxwxwxwxwxwxwx
1956-11-09 -2.6 -0.7 -3.8- 94.5- 5.7 0.7---- 0.0------------
1956-11-08 -1.5 3.1 -4.7- 95.0- 4.7 0.0---- 0.0------------
1956-11-07 -1.3 1.9 -3.0- 95.5- 4.3 0.7---- 0.0------------
1956-11-06 0.2 2.6 -1.3- 98.0- 3.3 0.7---- 0.8------------
1956-11-05 3.3 6.7 1.4- 99.5- 5.0 2.0---- 2.8------------
1956-11-04 0.7 2.1 -3.0- 98.0- 5.7 1.3---- 0.4------------
1956-11-03 -0.2 4.1 -3.5- 97.3- 5.0 0.3---- 0.0------------
1956-11-02 -0.1 4.4 -1.9- 97.5- 3.7 0.7---- 0.0------------
1956-11-01 1.4 2.2 -3.5-100.0- 8.0 1.7---- 0.3------------
1956-10-31 -3.6 -0.9-10.0- 93.8- 3.0 1.0---- 0.0------------
1956-10-30 -4.3 -1.4 -6.2- 93.0- 5.3 6.0---- 0.0------------
1956-10-29 -0.5 4.1 -1.9- 96.0- 8.0 11.3---- 0.0------------
1956-10-28 5.2 7.0 3.7- 96.3- 8.0 7.0---- 3.1------------
1956-10-27 6.5 7.1 4.3- 90.8- 8.0 8.0---- 7.4------------
1956-10-26 5.2 7.5 3.7- 95.8- 8.0 0.0---- 0.0------------
1956-10-25 9.4 13.2 7.3- 96.3- 8.0 1.0---- 4.6------------
1956-10-24 11.8 12.7 8.8- 85.8- 8.0 0.7---- 0.0------------
1956-10-23 9.8 11.6 9.1- 92.8- 8.0 2.3---- 0.0------------
1956-10-22 11.3 13.2 10.5- 82.8- 7.7 5.0---- 0.0------------
1956-10-21 12.0 13.2 6.8- 89.8- 8.0 2.0---- 0.0------------
1956-10-20 9.8 11.1 6.7- 89.0- 8.0 1.0---- 0.5------------
1956-10-19 10.0 12.1 7.5- 93.3- 8.0 1.0---- 0.3------------
1956-10-18 10.8 13.0 6.5- 95.0- 8.0 1.0---- 1.3------------
1956-10-17 7.3 13.5 1.0- 92.3- 0.3 0.7---- 0.0------------
1956-10-16 5.6 12.6 0.2- 84.0- 2.7 0.0---- 0.0------------
1956-10-15 3.9 11.1 0.8- 89.5- 0.3 0.3---- 0.0------------
1956-10-14 6.3 11.1 4.0- 89.8- 2.0 2.3---- 0.0------------
1956-10-13 9.4 11.6 8.4- 90.5- 7.3 3.7---- 17.0------------
1956-10-12 10.5 11.4 9.2- 94.5- 6.0 2.3---- 0.0------------
1956-10-11 9.5 10.6 5.6- 91.0- 8.0 2.0---- 0.0------------
1956-10-10 5.3 9.7 -0.8- 93.5- 4.3 0.7---- 0.0------------
1956-10-09 5.4 10.1 3.2- 88.8- 3.7 1.0---- 0.0------------
1956-10-08 4.4 6.6 3.2- 91.5- 7.0 1.0---- 1.5------------
1956-10-07 5.3 8.1 3.7- 93.8- 8.0 1.7---- 7.0------------
1956-10-06 6.2 8.8 3.3- 91.5- 7.7 0.3---- 0.1------------
1956-10-05 6.3 9.9 4.1- 91.0- 5.3 2.0---- 0.0------------
1956-10-04 8.7 13.9 4.1- 93.3- 4.7 0.7---- 0.0------------
1956-10-03 10.0 13.6 6.7- 96.0- 8.0 0.0---- 2.7------------
1956-10-02 14.1 20.2 8.4- 90.5- 8.0 0.0---- 23.0------------
1956-10-01 12.4 16.6 5.2- 81.8- 5.3 0.7---- 5.4------------
1956-09-30 12.4 17.7 8.8- 89.0- 3.0 1.0---- 0.0------------
1956-09-29 13.3 17.0 11.6- 85.0- 4.0 2.0---- 0.0------------
1956-09-28 14.5 17.2 12.8- 84.5- 6.3 2.7---- 0.0------------
1956-09-27 15.9 21.3 7.2- 78.8- 5.0 1.7---- 1.1------------
1956-09-26 14.5 21.3 6.9- 91.0- 0.0 2.0---- 0.0------------
1956-09-25 10.6 17.6 2.7- 88.5- 0.0 1.0---- 0.0------------
1956-09-24 9.0 15.1 3.8- 90.0- 0.0 1.0---- 0.0------------
1956-09-23 10.4 16.1 6.5- 86.3- 3.7 1.0---- 0.0------------
1956-09-22 12.1 17.6 5.9- 82.0- 1.0 1.3---- 0.0------------
1956-09-21 10.3 17.5 2.8- 92.5- 1.0 0.0---- 0.0------------
1956-09-20 9.5 15.1 4.7- 84.0- 3.0 0.3---- 0.0------------
1956-09-19 9.5 15.9 1.4- 80.0- 2.0 0.0---- 0.0------------
1956-09-18 8.9 13.7 4.7- 95.8- 1.7 0.7---- 0.0------------
1956-09-17 8.6 13.6 4.8- 79.0- 3.7 1.7---- 0.5------------
1956-09-16 9.2 12.7 5.9- 94.8- 7.3 3.3---- 7.2------------
1956-09-15 10.3 15.6 7.8- 99.5- 3.3 1.0---- 0.0------------
1956-09-14 10.7 15.9 4.8- 90.3- 3.7 0.0---- 0.5------------
1956-09-13 7.7 9.6 6.8- 97.0- 7.7 1.7---- 11.9------------
1956-09-12 9.9 14.1 7.5- 92.3- 6.7 1.7---- 6.6------------
1956-09-11 13.4 18.1 10.6- 87.0- 7.0 0.0---- 13.6------------
274.5 ms

 

Źródłem pochodzenia danych jest Instytut Meteorologii i Gospodarki Wodnej – Państwowy Instytut Badawczy. Dane Instytutu Meteorologii i Gospodarki Wodnej – Państwowego Instytutu Badawczego zostały przetworzone.

Dane źródłowe można odnaleźć na stronie https://dane.imgw.pl